Details for Lufthansa at LSZH




Go Back


Latest METAR
Local Time

LSZH 241350Z 05007KT 010V080 8000 OVC022 M01/M06 Q1013 NOSIG

24/02/2018, 15:08:54

Description
Results
Lufthansa Logo
Number of Pilots based at LSZH
0 Pilots Based here
Number of Lufthansa Flights Departed from LSZH
0 Flights Departed
Number of Lufthansa Flights Arrived at LSZH
0 Flights Arrived
Number of Lufthansa Schedules Departing from LSZH
5 Schedules
Number of Lufthansa Schedules Arriving at LSZH
5 Schedules
Number of Lufthansa Schedules Departing from LSZH availible today
5 Schedules Today
Number of Lufthansa Schedules Arriving at LSZH availible today
5 Schedules Today
Average Landing Rate at LSZH
-233 fpm
Lufthansa Average Landing Rate at LSZH
0 fpm
Total Fuel Purchased at LSZH by Lufthansa
0.00 kgs / 0.00 lbs

Pilots Based at LSZH


Pilot ID
Pilot Name
Pilot Rank
No. of Flights
No. of Flying Hours
There are no pilots assigned to this hub!   Will you be the first?
Content